Time;durP1;ratioP1;P1;durP2;ratioP2;P2;SDS_P1;SDS_P2;PMS_P1;PMS_P2;Temp;Humidity;BMP_temperature;BMP_pressure;BME280_temperature;BME280_humidity;BME280_pressure;Samples;Min_cycle;Max_cycle;Signal;HPM_P1;HPM_P2
2022/04/10 04:00:59;;;;;;;6.13;5.63;;;4.00;99.90;;;;;;5703623;23;20248;-67
2022/04/10 04:03:26;;;;;;;8.30;5.60;;;3.90;99.90;;;;;;4977730;28;20558;-65
2022/04/10 04:05:55;;;;;;;6.97;5.80;;;3.90;99.90;;;;;;4977698;28;20455;-67
2022/04/10 04:08:22;;;;;;;6.07;5.57;;;3.90;99.90;;;;;;4977706;28;20454;-66
2022/04/10 04:10:48;;;;;;;6.43;5.90;;;3.90;99.90;;;;;;4977733;28;20470;-65
2022/04/10 04:13:15;;;;;;;6.83;6.23;;;3.90;99.90;;;;;;4977677;28;20435;-65
2022/04/10 04:15:42;;;;;;;7.07;6.37;;;3.90;99.90;;;;;;4977619;28;20918;-66
2022/04/10 04:18:10;;;;;;;6.40;5.80;;;4.00;99.90;;;;;;4977566;28;20533;-67
2022/04/10 04:20:37;;;;;;;7.13;6.10;;;4.00;99.90;;;;;;4977371;28;20471;-67
2022/04/10 04:23:04;;;;;;;6.87;6.17;;;4.00;99.90;;;;;;4977099;28;20992;-67
2022/04/10 04:25:31;;;;;;;6.17;5.57;;;4.10;99.90;;;;;;4976968;28;20459;-67
2022/04/10 04:27:58;;;;;;;5.70;5.30;;;4.20;99.90;;;;;;4977295;28;20534;-67
2022/04/10 04:30:25;;;;;;;7.43;5.47;;;4.20;99.90;;;;;;4977483;28;20455;-67
2022/04/10 04:32:52;;;;;;;6.60;6.00;;;4.30;99.90;;;;;;4977567;28;20466;-69
2022/04/10 04:35:20;;;;;;;6.40;5.90;;;4.30;99.90;;;;;;4977390;28;20451;-67
2022/04/10 04:37:47;;;;;;;7.10;5.90;;;4.40;99.90;;;;;;4977079;28;20475;-67
2022/04/10 04:40:15;;;;;;;7.50;5.97;;;4.40;99.90;;;;;;4977016;28;20459;-67
2022/04/10 04:42:42;;;;;;;6.70;6.03;;;4.50;99.90;;;;;;4977552;28;20466;-67
2022/04/10 04:45:10;;;;;;;6.27;5.63;;;4.50;99.90;;;;;;4976917;28;20942;-67
2022/04/10 04:47:37;;;;;;;6.77;5.80;;;4.60;99.90;;;;;;4976919;28;20451;-66
2022/04/10 04:50:06;;;;;;;6.43;5.83;;;4.60;99.90;;;;;;4976953;28;20517;-67
2022/04/10 04:52:34;;;;;;;6.57;5.97;;;4.60;99.90;;;;;;4976749;28;20486;-67
2022/04/10 04:55:01;;;;;;;6.83;6.27;;;4.70;99.90;;;;;;4976854;28;20488;-67
2022/04/10 04:57:27;;;;;;;6.07;5.47;;;4.80;99.90;;;;;;4976738;28;20479;-67
2022/04/10 04:59:54;;;;;;;7.17;6.57;;;4.80;99.90;;;;;;4976606;28;20462;-67
2022/04/10 05:02:21;;;;;;;6.07;5.57;;;4.80;99.90;;;;;;4976756;28;20491;-67
2022/04/10 05:04:47;;;;;;;6.07;5.47;;;4.90;99.90;;;;;;4976662;28;20513;-67
2022/04/10 05:07:14;;;;;;;6.43;5.83;;;4.90;99.90;;;;;;4976581;28;20472;-67
2022/04/10 05:09:42;;;;;;;6.63;6.07;;;5.00;99.90;;;;;;4976939;28;20832;-66
2022/04/10 05:12:11;;;;;;;6.03;5.53;;;5.00;99.90;;;;;;4976758;28;20479;-66
2022/04/10 05:14:37;;;;;;;5.97;5.47;;;5.00;99.90;;;;;;4976487;28;20455;-66
2022/04/10 05:17:05;;;;;;;7.10;5.87;;;5.10;99.90;;;;;;4976417;28;20474;-66
2022/04/10 05:19:31;;;;;;;6.80;6.30;;;5.20;99.90;;;;;;4976350;28;20847;-66
2022/04/10 05:21:58;;;;;;;7.10;6.17;;;5.20;99.90;;;;;;4976528;28;20501;-66
2022/04/10 05:24:25;;;;;;;6.37;5.77;;;5.40;99.90;;;;;;4976328;28;20463;-66
2022/04/10 05:26:53;;;;;;;6.40;5.80;;;5.40;99.90;;;;;;4976211;28;20458;-66
2022/04/10 05:29:19;;;;;;;5.87;5.33;;;5.40;99.90;;;;;;4975940;28;20470;-66
2022/04/10 05:31:46;;;;;;;6.27;5.30;;;5.50;99.90;;;;;;4976112;28;20815;-66
2022/04/10 05:34:13;;;;;;;5.80;5.33;;;5.60;99.90;;;;;;4976320;28;20506;-67
2022/04/10 05:36:39;;;;;;;5.30;4.80;;;5.70;99.90;;;;;;4975351;28;20981;-67
2022/04/10 05:39:06;;;;;;;5.63;4.87;;;5.80;99.90;;;;;;4976384;28;20857;-67
2022/04/10 05:41:33;;;;;;;5.70;5.10;;;5.90;99.90;;;;;;4975710;28;20474;-67
2022/04/10 05:44:01;;;;;;;5.27;4.80;;;6.00;99.90;;;;;;4976227;28;20447;-67
2022/04/10 05:46:27;;;;;;;7.30;4.30;;;6.10;99.90;;;;;;4975946;28;20573;-66
2022/04/10 05:48:54;;;;;;;5.00;4.60;;;6.20;99.90;;;;;;4976084;28;20455;-66
2022/04/10 05:51:21;;;;;;;5.97;5.53;;;6.30;99.90;;;;;;4975915;28;20490;-67
2022/04/10 05:53:47;;;;;;;5.03;4.63;;;6.40;99.90;;;;;;4975651;28;20961;-66
2022/04/10 05:56:14;;;;;;;5.80;4.47;;;6.60;99.90;;;;;;4975829;28;20869;-66
2022/04/10 05:58:41;;;;;;;5.83;4.83;;;6.70;99.90;;;;;;4976115;28;20463;-65
2022/04/10 06:01:09;;;;;;;4.80;4.40;;;6.90;99.90;;;;;;4975649;28;20494;-67
2022/04/10 06:03:36;;;;;;;4.50;4.10;;;7.30;99.90;;;;;;4975541;28;20462;-66
2022/04/10 06:06:02;;;;;;;5.43;4.93;;;7.70;99.90;;;;;;4975857;28;20521;-66
2022/04/10 06:08:29;;;;;;;4.47;3.93;;;8.10;99.90;;;;;;4975987;28;20455;-66
2022/04/10 06:10:56;;;;;;;5.90;4.20;;;8.40;99.90;;;;;;4975273;28;21008;-66
2022/04/10 06:13:22;;;;;;;4.20;4.00;;;8.70;99.90;;;;;;4975797;28;20459;-67
2022/04/10 06:15:49;;;;;;;4.60;4.20;;;8.80;99.90;;;;;;4975888;28;20546;-66
2022/04/10 06:18:17;;;;;;;7.13;5.17;;;8.80;99.90;;;;;;4975172;28;21012;-66
2022/04/10 06:20:44;;;;;;;6.70;6.10;;;8.60;99.90;;;;;;4975954;28;20479;-66
2022/04/10 06:23:11;;;;;;;5.63;5.13;;;8.40;99.90;;;;;;4975624;28;20471;-67
2022/04/10 06:25:37;;;;;;;4.90;4.43;;;8.20;99.90;;;;;;4975669;28;20481;-66
2022/04/10 06:28:05;;;;;;;5.17;4.77;;;8.10;99.90;;;;;;4975239;28;20988;-66
2022/04/10 06:30:32;;;;;;;7.20;5.20;;;8.10;99.90;;;;;;4975282;28;20486;-66
2022/04/10 06:32:58;;;;;;;7.07;4.67;;;8.00;99.90;;;;;;4975468;28;20459;-66
2022/04/10 06:35:26;;;;;;;5.03;4.63;;;7.90;99.90;;;;;;4975662;28;20455;-66
2022/04/10 06:37:53;;;;;;;5.20;4.80;;;7.90;99.90;;;;;;4975581;28;20479;-65
2022/04/10 06:40:20;;;;;;;5.07;4.37;;;7.90;99.90;;;;;;4975459;28;20455;-66
2022/04/10 06:42:47;;;;;;;4.80;4.47;;;7.90;99.90;;;;;;4975620;28;20474;-66
2022/04/10 06:45:14;;;;;;;5.90;4.83;;;7.90;99.90;;;;;;4975557;28;20533;-67
2022/04/10 06:47:40;;;;;;;5.43;4.90;;;7.90;99.90;;;;;;4975110;28;20530;-66
2022/04/10 06:50:08;;;;;;;5.33;4.77;;;8.00;99.90;;;;;;4975113;28;20853;-66
2022/04/10 06:52:37;;;;;;;4.93;4.57;;;8.10;99.90;;;;;;4975369;28;20474;-66
2022/04/10 06:55:04;;;;;;;5.63;5.13;;;8.20;99.90;;;;;;4975449;28;20459;-66
2022/04/10 06:57:30;;;;;;;5.13;4.60;;;8.40;99.90;;;;;;4974981;28;20823;-66
2022/04/10 06:59:57;;;;;;;4.97;4.17;;;8.40;99.90;;;;;;4975109;28;20466;-66
2022/04/10 07:02:24;;;;;;;6.77;5.10;;;8.30;99.90;;;;;;4974935;28;20533;-67
2022/04/10 07:04:50;;;;;;;5.73;5.07;;;8.20;99.90;;;;;;4975289;28;20459;-66
2022/04/10 07:07:17;;;;;;;5.67;5.27;;;8.30;99.90;;;;;;4975136;28;20455;-66
2022/04/10 07:09:45;;;;;;;4.90;4.50;;;8.40;99.90;;;;;;4975186;28;20458;-65
2022/04/10 07:12:12;;;;;;;6.20;4.90;;;8.60;99.90;;;;;;4975044;28;20479;-66
2022/04/10 07:14:38;;;;;;;5.80;4.93;;;8.70;99.90;;;;;;4975155;28;20868;-65
2022/04/10 07:17:05;;;;;;;4.93;4.60;;;8.90;99.90;;;;;;4975050;28;20474;-70
2022/04/10 07:19:32;;;;;;;5.23;4.80;;;9.00;99.90;;;;;;4975206;28;20463;-65
2022/04/10 07:24:44;;;;;;;5.10;4.70;;;9.10;99.90;;;;;;4991503;28;20425;-66
2022/04/10 07:27:11;;;;;;;5.43;4.57;;;9.30;99.90;;;;;;4979306;28;20451;-66
2022/04/10 07:29:38;;;;;;;4.80;4.50;;;9.50;99.90;;;;;;4975126;28;20823;-66
2022/04/10 07:32:05;;;;;;;5.40;4.97;;;9.60;99.90;;;;;;4974816;28;20478;-66
2022/04/10 07:34:32;;;;;;;4.87;4.50;;;9.50;99.90;;;;;;4975132;28;20543;-67
2022/04/10 07:36:59;;;;;;;6.03;4.80;;;9.50;99.90;;;;;;4974396;28;20459;-67
2022/04/10 07:39:26;;;;;;;5.10;4.70;;;9.50;99.90;;;;;;4974812;28;20455;-67
2022/04/10 07:41:54;;;;;;;6.90;5.10;;;9.40;99.90;;;;;;4974460;28;20486;-66
2022/04/10 07:44:21;;;;;;;4.67;4.33;;;9.60;99.90;;;;;;4975004;28;20440;-67
2022/04/10 07:49:32;;;;;;;4.87;4.47;;;9.60;99.90;;;;;;4974833;28;20814;-66
2022/04/10 07:51:59;;;;;;;5.37;4.80;;;9.70;99.90;;;;;;4974748;28;20479;-65
2022/04/10 07:54:25;;;;;;;5.30;4.73;;;9.70;99.90;;;;;;4974095;28;20459;-64
2022/04/10 07:56:54;;;;;;;7.30;5.10;;;9.70;99.90;;;;;;4974227;28;20490;-65
2022/04/10 07:59:23;;;;;;;5.17;4.73;;;9.80;99.90;;;;;;4974463;28;20454;-65
2022/04/10 08:01:50;;;;;;;4.60;4.20;;;9.90;99.90;;;;;;4977445;28;20493;-65
2022/04/10 08:04:16;;;;;;;5.50;4.97;;;9.90;99.90;;;;;;4978301;28;20518;-65
2022/04/10 08:06:43;;;;;;;4.93;4.53;;;9.90;99.90;;;;;;4978218;28;20455;-67
2022/04/10 08:09:10;;;;;;;7.00;5.27;;;10.00;99.90;;;;;;4977703;28;20462;-65
2022/04/10 08:11:37;;;;;;;4.30;4.00;;;10.00;99.90;;;;;;4977794;28;20478;-67
2022/04/10 08:14:05;;;;;;;4.97;4.53;;;10.10;99.90;;;;;;4977722;28;20462;-67
2022/04/10 08:16:32;;;;;;;5.70;4.37;;;10.20;99.90;;;;;;4977435;28;20455;-66
2022/04/10 08:18:58;;;;;;;4.00;3.67;;;10.30;99.90;;;;;;4977375;28;20478;-70
2022/04/10 08:21:25;;;;;;;4.77;4.40;;;10.30;99.90;;;;;;4977203;28;20479;-67
2022/04/10 08:23:52;;;;;;;4.87;4.30;;;10.30;99.90;;;;;;4977064;28;20459;-66
2022/04/10 08:26:18;;;;;;;4.63;4.27;;;10.50;99.90;;;;;;4977342;28;20462;-65
2022/04/10 08:28:45;;;;;;;5.23;4.73;;;10.60;99.90;;;;;;4977286;28;20462;-66
2022/04/10 08:31:14;;;;;;;5.43;4.93;;;10.90;99.90;;;;;;4977754;28;20475;-66
2022/04/10 08:33:40;;;;;;;6.90;4.20;;;11.00;99.90;;;;;;4977183;28;20833;-66
2022/04/10 08:36:07;;;;;;;5.03;4.50;;;11.00;99.90;;;;;;4977088;28;20454;-66
2022/04/10 08:38:34;;;;;;;4.90;4.27;;;11.00;99.90;;;;;;4977204;28;20483;-66
2022/04/10 08:41:02;;;;;;;6.10;5.60;;;11.00;99.90;;;;;;4977200;28;20471;-66
2022/04/10 08:43:29;;;;;;;5.70;4.20;;;11.00;99.90;;;;;;4977161;28;20469;-66
2022/04/10 08:45:57;;;;;;;5.03;4.43;;;11.00;99.90;;;;;;4977083;28;20463;-66
2022/04/10 08:48:27;;;;;;;4.63;4.23;;;11.20;99.90;;;;;;4977052;28;20857;-66
2022/04/10 08:50:55;;;;;;;6.30;4.93;;;11.30;99.90;;;;;;4977058;28;20873;-66
2022/04/10 08:53:22;;;;;;;8.70;5.70;;;11.50;99.90;;;;;;4976827;28;20546;-66
2022/04/10 08:55:49;;;;;;;5.20;4.80;;;11.60;99.90;;;;;;4976522;28;20459;-66
2022/04/10 08:58:16;;;;;;;5.60;4.80;;;12.00;99.90;;;;;;4976714;28;20474;-66
2022/04/10 09:00:44;;;;;;;5.60;5.10;;;12.10;99.40;;;;;;4976470;28;20486;-67
2022/04/10 09:03:11;;;;;;;4.90;4.50;;;12.20;98.80;;;;;;4976685;28;20466;-67
2022/04/10 09:05:40;;;;;;;5.63;4.10;;;12.60;98.90;;;;;;4976765;28;20525;-67
2022/04/10 09:08:09;;;;;;;5.93;4.53;;;12.90;99.90;;;;;;4976527;28;20459;-67
2022/04/10 09:10:55;;;;;;;5.30;4.80;;;13.30;99.90;;;;;;4976311;28;20994;-65
2022/04/10 09:13:26;;;;;;;6.33;4.33;;;13.80;98.00;;;;;;4976674;28;20797;-65
2022/04/10 09:16:00;;;;;;;6.77;4.43;;;14.40;93.10;;;;;;4976519;28;20498;-65
2022/04/10 09:18:27;;;;;;;4.80;4.30;;;15.30;92.70;;;;;;4976837;28;20467;-66
2022/04/10 09:21:08;;;;;;;5.20;4.50;;;15.80;87.20;;;;;;4976670;28;20471;-66
2022/04/10 09:23:35;;;;;;;9.50;5.20;;;15.80;86.60;;;;;;4976744;28;20449;-66
2022/04/10 09:26:02;;;;;;;4.50;4.10;;;15.80;87.70;;;;;;4976558;28;20463;-66
2022/04/10 09:28:45;;;;;;;4.80;4.40;;;15.30;82.30;;;;;;4976534;28;20930;-67
2022/04/10 09:31:32;;;;;;;4.23;3.93;;;15.30;91.30;;;;;;4976195;28;20479;-65
2022/04/10 09:34:01;;;;;;;4.17;3.70;;;15.70;90.70;;;;;;4976582;28;20449;-67
2022/04/10 09:36:37;;;;;;;4.20;3.80;;;15.90;89.60;;;;;;4976299;28;20490;-66
2022/04/10 09:39:10;;;;;;;4.87;4.27;;;16.70;80.90;;;;;;4976283;28;20478;-66
2022/04/10 09:41:37;;;;;;;7.03;4.53;;;17.00;73.40;;;;;;4976120;28;20475;-67
2022/04/10 09:44:20;;;;;;;4.53;4.23;;;17.00;72.30;;;;;;4976352;28;20458;-66
2022/04/10 09:46:58;;;;;;;4.57;4.17;;;17.10;73.70;;;;;;4976462;28;20450;-66
2022/04/10 09:49:25;;;;;;;5.47;4.47;;;17.40;73.20;;;;;;4975873;28;20493;-67
2022/04/10 09:52:06;;;;;;;5.47;4.10;;;17.80;74.40;;;;;;4976133;28;20478;-67
2022/04/10 09:54:35;;;;;;;4.23;3.70;;;18.10;71.40;;;;;;4976120;28;20443;-67
2022/04/10 09:57:04;;;;;;;7.20;3.97;;;17.70;66.90;;;;;;4975648;28;20987;-68
2022/04/10 09:59:37;;;;;;;5.53;4.00;;;17.30;68.00;;;;;;4975854;28;20875;-66
2022/04/10 10:02:05;;;;;;;3.60;3.40;;;16.60;64.30;;;;;;4975734;28;20526;-66
2022/04/10 10:04:35;;;;;;;4.43;4.07;;;15.60;65.50;;;;;;4975572;28;20599;-66
2022/04/10 10:07:05;;;;;;;4.13;3.83;;;15.00;69.50;;;;;;4975652;28;20513;-66
2022/04/10 10:09:33;;;;;;;5.33;3.67;;;14.40;68.80;;;;;;4975771;28;20459;-70
2022/04/10 10:12:01;;;;;;;3.50;3.30;;;13.60;71.40;;;;;;4975739;28;20479;-69
2022/04/10 10:14:30;;;;;;;6.80;4.33;;;13.10;72.10;;;;;;4976017;28;20490;-66
2022/04/10 10:16:58;;;;;;;5.13;4.00;;;12.50;74.30;;;;;;4975845;28;20451;-65
2022/04/10 10:19:25;;;;;;;4.70;4.20;;;12.20;76.60;;;;;;4975584;28;20577;-66
2022/04/10 10:21:53;;;;;;;3.50;3.17;;;12.00;78.30;;;;;;4975899;28;20506;-66
2022/04/10 10:24:25;;;;;;;6.30;4.33;;;11.60;82.00;;;;;;4975159;28;20494;-65
2022/04/10 10:27:12;;;;;;;4.93;4.53;;;11.30;86.10;;;;;;4975314;28;20450;-65
2022/04/10 10:29:58;;;;;;;5.53;4.97;;;10.60;93.10;;;;;;4975555;28;20439;-64
2022/04/10 10:32:39;;;;;;;5.50;5.00;;;10.10;98.50;;;;;;4975727;28;20837;-64
2022/04/10 10:35:07;;;;;;;4.63;4.20;;;9.80;99.90;;;;;;4975217;28;20805;-64
2022/04/10 10:37:49;;;;;;;6.10;4.50;;;9.60;99.90;;;;;;4975045;28;20915;-64
2022/04/10 10:40:18;;;;;;;9.97;5.33;;;9.50;99.90;;;;;;4975226;28;20498;-65
2022/04/10 10:42:46;;;;;;;5.50;5.00;;;9.50;99.90;;;;;;4975210;28;20458;-66
2022/04/10 10:45:41;;;;;;;6.93;6.23;;;9.70;99.90;;;;;;4975060;28;20461;-66
2022/04/10 10:48:37;;;;;;;6.10;4.87;;;10.10;99.90;;;;;;4975069;28;20525;-65
2022/04/10 10:51:41;;;;;;;4.83;4.37;;;11.00;99.90;;;;;;4974812;28;20978;-65
2022/04/10 10:54:11;;;;;;;4.93;4.43;;;12.00;99.00;;;;;;4975193;28;20458;-65
2022/04/10 10:56:41;;;;;;;5.60;4.90;;;13.10;99.90;;;;;;4974828;28;20462;-65
2022/04/10 10:59:32;;;;;;;5.50;4.90;;;14.00;97.20;;;;;;4977052;28;20506;-65
2022/04/10 11:02:04;;;;;;;5.20;4.67;;;14.50;95.00;;;;;;4991338;28;20487;-66
2022/04/10 11:04:35;;;;;;;7.43;5.30;;;14.30;93.00;;;;;;4982666;28;20454;-65
2022/04/10 11:07:15;;;;;;;4.87;4.50;;;14.80;93.50;;;;;;4975437;28;20447;-65
2022/04/10 11:09:58;;;;;;;5.80;4.43;;;15.30;88.60;;;;;;4975071;28;20468;-65
2022/04/10 11:12:32;;;;;;;4.30;4.00;;;15.50;84.30;;;;;;4975337;28;20474;-68
2022/04/10 11:15:02;;;;;;;5.77;4.60;;;15.80;90.40;;;;;;4974553;28;20904;-66
2022/04/10 11:17:31;;;;;;;6.97;4.17;;;15.80;84.30;;;;;;4974474;28;20439;-65
2022/04/10 11:20:00;;;;;;;3.27;3.07;;;16.20;90.20;;;;;;4974824;28;20529;-65
2022/04/10 11:22:33;;;;;;;4.80;4.00;;;16.30;88.60;;;;;;4974397;28;20497;-65
2022/04/10 11:25:01;;;;;;;4.20;3.80;;;16.50;84.20;;;;;;4974728;28;20435;-65
2022/04/10 11:27:43;;;;;;;4.23;3.83;;;15.90;79.30;;;;;;4974547;28;20458;-66
2022/04/10 11:30:11;;;;;;;5.20;4.07;;;15.90;85.00;;;;;;4974639;28;20473;-64
2022/04/10 11:32:43;;;;;;;4.77;4.23;;;15.70;78.40;;;;;;4974299;28;20490;-66
2022/04/10 11:35:15;;;;;;;6.40;4.83;;;15.30;79.00;;;;;;4975023;28;20455;-64
2022/04/10 11:37:44;;;;;;;5.20;4.60;;;14.70;83.80;;;;;;4978303;28;20443;-66
2022/04/10 11:40:12;;;;;;;7.10;4.93;;;14.90;82.00;;;;;;4978196;28;20493;-65
2022/04/10 11:42:40;;;;;;;5.20;4.77;;;15.00;79.30;;;;;;4978139;28;20510;-65
2022/04/10 11:45:09;;;;;;;4.77;4.27;;;14.80;78.00;;;;;;4978027;28;20455;-66
2022/04/10 11:47:38;;;;;;;3.60;3.40;;;14.50;77.70;;;;;;4978158;28;20447;-65
2022/04/10 11:50:06;;;;;;;3.67;3.40;;;14.20;77.90;;;;;;4978116;28;20478;-66
2022/04/10 11:52:33;;;;;;;6.67;4.70;;;13.50;75.40;;;;;;4977509;28;21009;-66
2022/04/10 11:54:59;;;;;;;3.83;3.60;;;13.00;83.60;;;;;;4978048;28;20458;-65
2022/04/10 11:57:26;;;;;;;6.43;3.90;;;12.70;85.00;;;;;;4978104;28;20454;-66
2022/04/10 11:59:54;;;;;;;4.80;4.50;;;12.20;85.60;;;;;;4977895;28;20501;-66
2022/04/10 12:02:21;;;;;;;4.80;4.00;;;11.70;87.50;;;;;;4977457;28;20562;-66
2022/04/10 12:04:49;;;;;;;4.87;3.93;;;11.60;88.70;;;;;;4977833;28;20875;-66
2022/04/10 12:07:18;;;;;;;6.70;4.60;;;11.60;90.60;;;;;;4977792;28;20530;-66
2022/04/10 12:09:46;;;;;;;4.40;4.00;;;11.70;89.60;;;;;;4977663;28;20505;-66
2022/04/10 12:12:13;;;;;;;4.10;3.70;;;11.50;89.90;;;;;;4977578;28;20481;-67
2022/04/10 12:14:40;;;;;;;4.30;3.90;;;11.30;90.50;;;;;;4977769;28;20443;-66
2022/04/10 12:17:12;;;;;;;3.90;3.60;;;11.30;90.70;;;;;;4977951;28;20455;-65
2022/04/10 12:19:39;;;;;;;5.07;3.70;;;11.10;92.60;;;;;;4977524;28;20469;-66
2022/04/10 12:22:07;;;;;;;3.80;3.53;;;10.90;93.30;;;;;;4977015;28;20901;-66
2022/04/10 12:24:35;;;;;;;4.50;4.20;;;10.80;95.70;;;;;;4977205;28;20462;-65
2022/04/10 12:27:04;;;;;;;5.23;4.93;;;10.70;99.20;;;;;;4977843;28;20458;-66
2022/04/10 12:29:32;;;;;;;5.47;5.17;;;10.60;99.90;;;;;;4977385;28;20455;-66
2022/04/10 12:31:59;;;;;;;6.97;4.77;;;10.40;99.90;;;;;;4977277;28;20566;-66
2022/04/10 12:34:34;;;;;;;6.20;5.60;;;10.00;99.90;;;;;;4977460;28;20481;-66
2022/04/10 12:37:08;;;;;;;5.10;4.70;;;9.60;99.90;;;;;;4977396;28;20502;-66
2022/04/10 12:39:35;;;;;;;6.60;4.87;;;9.50;99.90;;;;;;4977325;28;20561;-66
2022/04/10 12:42:07;;;;;;;3.50;3.27;;;9.50;99.90;;;;;;4977065;28;20479;-66
2022/04/10 12:44:34;;;;;;;4.17;3.77;;;10.00;99.90;;;;;;4977207;28;20461;-66
2022/04/10 12:47:01;;;;;;;3.00;2.90;;;10.40;99.90;;;;;;4976590;28;20486;-66
2022/04/10 12:49:28;;;;;;;3.07;2.77;;;10.80;99.90;;;;;;4976693;28;20930;-66
2022/04/10 12:51:59;;;;;;;2.80;2.70;;;11.30;99.90;;;;;;4976895;28;20490;-66
2022/04/10 12:54:37;;;;;;;3.67;3.37;;;11.40;99.40;;;;;;4976993;28;20458;-66
2022/04/10 12:57:04;;;;;;;5.70;3.20;;;11.30;99.00;;;;;;4976969;28;20443;-66
2022/04/10 12:59:42;;;;;;;4.07;3.57;;;11.10;96.70;;;;;;4976897;28;20613;-66
2022/04/10 13:02:10;;;;;;;3.63;3.33;;;11.00;97.70;;;;;;4976573;28;21067;-66
2022/04/10 13:04:38;;;;;;;4.07;3.40;;;11.10;99.90;;;;;;4977560;28;20535;-66
2022/04/10 13:07:15;;;;;;;3.93;3.47;;;11.00;99.10;;;;;;4977561;28;20447;-66
2022/04/10 13:09:42;;;;;;;3.83;3.50;;;11.20;98.90;;;;;;4977146;28;20778;-66
2022/04/10 13:12:09;;;;;;;3.63;3.33;;;11.30;98.70;;;;;;4977390;28;20474;-66
2022/04/10 13:14:36;;;;;;;4.37;3.97;;;11.30;97.60;;;;;;4976984;28;20451;-66
2022/04/10 13:17:05;;;;;;;4.23;3.40;;;11.20;98.30;;;;;;4977156;28;20442;-66
2022/04/10 13:19:32;;;;;;;6.13;3.20;;;11.30;98.40;;;;;;4977399;28;20886;-66
2022/04/10 13:21:59;;;;;;;3.20;2.90;;;11.30;96.80;;;;;;4977548;28;20895;-66
2022/04/10 13:24:27;;;;;;;3.80;2.87;;;11.40;97.80;;;;;;4977450;28;20451;-66
2022/04/10 13:26:53;;;;;;;3.23;3.00;;;11.20;97.10;;;;;;4977588;28;20447;-66
2022/04/10 13:29:20;;;;;;;3.30;3.10;;;11.20;96.30;;;;;;4977319;28;20446;-66
2022/04/10 13:31:47;;;;;;;2.93;2.73;;;11.30;97.40;;;;;;4977241;28;20482;-66
2022/04/10 13:34:14;;;;;;;2.80;2.60;;;11.20;97.70;;;;;;4977143;28;20450;-66
2022/04/10 13:36:41;;;;;;;4.20;3.90;;;11.20;97.30;;;;;;4976905;28;20459;-66
2022/04/10 13:39:08;;;;;;;3.33;3.13;;;11.20;96.50;;;;;;4976175;28;20471;-66
2022/04/10 13:41:36;;;;;;;3.40;3.10;;;11.00;96.20;;;;;;4975985;28;21005;-66
2022/04/10 13:44:04;;;;;;;2.50;2.40;;;10.80;95.90;;;;;;4976161;28;20443;-66
2022/04/10 13:46:31;;;;;;;3.13;2.83;;;10.60;96.60;;;;;;4975838;28;20459;-67
2022/04/10 13:48:57;;;;;;;3.20;2.90;;;10.70;96.70;;;;;;4976265;28;20455;-66
2022/04/10 13:51:24;;;;;;;3.40;2.97;;;10.60;94.70;;;;;;4975741;28;20479;-66
2022/04/10 13:53:51;;;;;;;3.33;2.63;;;10.50;96.20;;;;;;4976038;28;20461;-66
2022/04/10 13:56:18;;;;;;;3.30;3.00;;;10.50;96.20;;;;;;4976325;28;20463;-66
2022/04/10 13:58:46;;;;;;;3.67;2.90;;;10.50;97.20;;;;;;4975666;28;20459;-66
2022/04/10 14:01:13;;;;;;;3.40;3.10;;;10.40;98.10;;;;;;4975703;28;21011;-66
2022/04/10 14:03:40;;;;;;;5.27;3.17;;;10.30;98.60;;;;;;4975864;28;20466;-67
2022/04/10 14:06:06;;;;;;;5.40;3.87;;;10.10;98.30;;;;;;4975853;28;20462;-66
2022/04/10 14:08:33;;;;;;;4.37;3.70;;;10.00;99.60;;;;;;4976019;28;20459;-66
2022/04/10 14:11:01;;;;;;;4.33;3.43;;;10.00;99.30;;;;;;4976920;28;20868;-67
2022/04/10 14:13:28;;;;;;;4.03;3.50;;;10.10;99.90;;;;;;4975997;28;20466;-66
2022/04/10 14:15:56;;;;;;;3.90;3.60;;;10.10;99.80;;;;;;4976033;28;20463;-66
2022/04/10 14:18:23;;;;;;;4.23;3.53;;;10.30;99.80;;;;;;4975866;28;20446;-66
2022/04/10 14:20:49;;;;;;;3.80;3.60;;;10.40;99.00;;;;;;4975574;28;20483;-66
2022/04/10 14:23:16;;;;;;;5.67;4.27;;;10.50;99.10;;;;;;4975688;28;20459;-66
2022/04/10 14:25:44;;;;;;;3.67;3.37;;;10.70;99.70;;;;;;4975321;28;20459;-67
2022/04/10 14:28:10;;;;;;;4.23;3.67;;;10.90;99.90;;;;;;4975300;28;20928;-66
2022/04/10 14:30:38;;;;;;;3.43;3.23;;;11.30;99.30;;;;;;4975354;28;20498;-66
2022/04/10 14:33:06;;;;;;;4.17;3.87;;;11.60;98.70;;;;;;4975222;28;20442;-66
2022/04/10 14:35:32;;;;;;;3.97;3.53;;;11.90;96.50;;;;;;4974997;28;20939;-66
2022/04/10 14:37:59;;;;;;;6.90;4.00;;;12.00;95.70;;;;;;4975175;28;20467;-66
2022/04/10 14:40:26;;;;;;;5.50;3.57;;;12.00;96.10;;;;;;4974687;28;20478;-67
2022/04/10 14:42:52;;;;;;;4.30;3.53;;;12.00;94.90;;;;;;4975239;28;20455;-65
2022/04/10 14:45:19;;;;;;;3.73;3.20;;;12.10;94.50;;;;;;4975006;28;20462;-66
2022/04/10 14:47:46;;;;;;;3.50;3.30;;;12.10;94.90;;;;;;4975117;28;20459;-66
2022/04/10 14:50:16;;;;;;;6.10;4.43;;;11.90;93.90;;;;;;4975171;28;20454;-67
2022/04/10 14:52:43;;;;;;;3.80;3.07;;;11.80;94.30;;;;;;4974989;28;20575;-66
2022/04/10 14:55:10;;;;;;;3.33;3.00;;;11.90;94.50;;;;;;4975014;28;20538;-66
2022/04/10 14:57:37;;;;;;;3.30;3.10;;;12.00;93.40;;;;;;4974981;28;20981;-66
2022/04/10 15:00:04;;;;;;;5.03;3.00;;;12.10;92.80;;;;;;4974831;28;20478;-66
2022/04/10 15:02:31;;;;;;;5.00;3.80;;;12.20;92.30;;;;;;4974726;28;20482;-66
2022/04/10 15:04:59;;;;;;;3.47;3.10;;;12.20;90.90;;;;;;4975189;28;20481;-66
2022/04/10 15:07:27;;;;;;;2.90;2.60;;;12.10;91.80;;;;;;4974960;28;20450;-66
2022/04/10 15:09:54;;;;;;;3.10;2.90;;;12.20;89.00;;;;;;4976759;28;20458;-66
2022/04/10 15:12:21;;;;;;;3.93;2.93;;;12.30;88.10;;;;;;4979920;28;20479;-66
2022/04/10 15:14:49;;;;;;;5.13;3.50;;;12.10;88.70;;;;;;4979225;28;20451;-66
2022/04/10 15:17:16;;;;;;;3.00;2.70;;;11.90;89.30;;;;;;4979024;28;20486;-66
2022/04/10 15:19:43;;;;;;;3.00;2.77;;;11.80;89.70;;;;;;4978865;28;20514;-66
2022/04/10 15:22:10;;;;;;;4.10;3.23;;;11.70;90.00;;;;;;4979050;28;20486;-66
2022/04/10 15:24:38;;;;;;;4.20;3.53;;;11.60;91.00;;;;;;4978890;28;20458;-66
2022/04/10 15:27:05;;;;;;;3.17;2.90;;;11.40;90.70;;;;;;4978982;28;20461;-65
2022/04/10 15:29:31;;;;;;;4.60;4.20;;;11.20;91.70;;;;;;4978705;28;20454;-66
2022/04/10 15:31:58;;;;;;;5.20;3.30;;;11.10;92.60;;;;;;4978918;28;20554;-65
2022/04/10 15:34:26;;;;;;;3.40;3.10;;;11.00;92.90;;;;;;4978536;28;20462;-66
2022/04/10 15:36:53;;;;;;;4.60;3.30;;;11.00;93.50;;;;;;4978565;28;20450;-66
2022/04/10 15:39:20;;;;;;;3.50;3.30;;;10.80;94.20;;;;;;4978249;28;20495;-66
2022/04/10 15:41:48;;;;;;;3.40;3.00;;;10.80;94.70;;;;;;4978213;28;21013;-66
2022/04/10 15:44:17;;;;;;;5.70;3.97;;;10.80;94.60;;;;;;4978274;28;20458;-66
2022/04/10 15:46:44;;;;;;;6.97;5.17;;;10.70;96.70;;;;;;4978243;28;20459;-66
2022/04/10 15:49:11;;;;;;;6.10;5.40;;;10.60;97.90;;;;;;4978697;28;20439;-66
2022/04/10 15:51:38;;;;;;;9.93;8.00;;;10.40;99.90;;;;;;4978223;28;20478;-66
2022/04/10 15:54:04;;;;;;;5.07;4.30;;;10.40;99.90;;;;;;4978848;28;20439;-66
2022/04/10 15:56:32;;;;;;;6.23;4.70;;;10.40;99.90;;;;;;4978081;28;20459;-67
2022/04/10 15:59:00;;;;;;;7.17;5.00;;;10.60;99.90;;;;;;4977650;28;20541;-65
2022/04/10 16:01:27;;;;;;;6.03;4.13;;;10.70;99.90;;;;;;4977350;28;20509;-66
2022/04/10 16:03:54;;;;;;;5.63;4.10;;;10.80;99.90;;;;;;4977931;28;20466;-65
2022/04/10 16:06:21;;;;;;;4.60;4.20;;;10.80;99.90;;;;;;4977553;28;20931;-66
2022/04/10 16:08:48;;;;;;;6.60;4.70;;;10.80;99.90;;;;;;4977515;28;20523;-65
2022/04/10 16:11:15;;;;;;;5.07;4.70;;;10.60;99.90;;;;;;4977763;28;20481;-65
2022/04/10 16:13:41;;;;;;;5.80;4.63;;;10.30;99.90;;;;;;4977634;28;20450;-66
2022/04/10 16:16:09;;;;;;;4.63;4.23;;;10.10;99.90;;;;;;4977588;28;20516;-65
2022/04/10 16:18:36;;;;;;;5.37;4.63;;;10.00;99.90;;;;;;4977545;28;20784;-65
2022/04/10 16:21:03;;;;;;;6.63;4.70;;;9.80;99.90;;;;;;4976923;28;20483;-65
2022/04/10 16:23:30;;;;;;;5.17;4.60;;;9.70;99.90;;;;;;4977156;28;20923;-65
2022/04/10 16:25:57;;;;;;;5.00;4.37;;;9.60;99.90;;;;;;4977501;28;20534;-65
2022/04/10 16:31:09;;;;;;;6.80;4.77;;;9.60;99.90;;;;;;4977266;28;20461;-65
2022/04/10 16:34:16;;;;;;;4.70;4.40;;;9.70;99.90;;;;;;4977328;28;20463;-65
2022/04/10 16:36:23;;;;;;;4.90;4.50;;;9.70;99.90;;;;;;4976793;28;20533;-65
2022/04/10 16:38:50;;;;;;;4.33;4.03;;;9.70;99.90;;;;;;4977274;28;20462;-65
2022/04/10 16:41:16;;;;;;;4.90;4.30;;;9.70;99.90;;;;;;4976929;28;20490;-65
2022/04/10 16:43:43;;;;;;;5.30;4.80;;;9.60;99.90;;;;;;4976757;28;20942;-65
2022/04/10 16:46:11;;;;;;;5.20;4.80;;;9.70;99.90;;;;;;4977016;28;20563;-65
2022/04/10 16:48:38;;;;;;;5.60;4.50;;;9.60;99.90;;;;;;4977034;28;20463;-65
2022/04/10 16:51:04;;;;;;;7.00;4.80;;;9.70;99.90;;;;;;4976926;28;20878;-65
2022/04/10 16:53:33;;;;;;;11.60;5.47;;;9.70;99.90;;;;;;4976817;28;20459;-65
2022/04/10 16:56:00;;;;;;;5.13;4.50;;;9.70;99.90;;;;;;4976874;28;20463;-65
2022/04/10 16:58:26;;;;;;;5.17;4.67;;;9.70;99.90;;;;;;4976585;28;20946;-65
2022/04/10 17:00:53;;;;;;;9.40;4.73;;;9.70;99.90;;;;;;4976184;28;21037;-65
2022/04/10 17:03:21;;;;;;;6.30;4.63;;;9.60;99.90;;;;;;4976302;28;20972;-65
2022/04/10 17:05:49;;;;;;;4.87;4.43;;;9.60;99.90;;;;;;4976874;28;20443;-65